createdAt,value
2023-03-21T00:00:54.656Z,3.17
2023-03-21T00:03:22.728Z,2.73
2023-03-21T00:05:53.389Z,2.80
2023-03-21T00:08:22.669Z,2.30
2023-03-21T00:10:57.144Z,2.50
2023-03-21T00:13:26.517Z,2.60
2023-03-21T00:16:17.206Z,2.50
2023-03-21T00:18:46.364Z,2.70
2023-03-21T00:21:39.616Z,2.97
2023-03-21T00:24:04.537Z,2.60
2023-03-21T00:26:33.542Z,3.20
2023-03-21T00:29:01.548Z,3.30
2023-03-21T00:31:31.348Z,2.80
2023-03-21T00:34:01.384Z,2.63
2023-03-21T00:36:29.694Z,2.70
2023-03-21T00:39:00.720Z,3.40
2023-03-21T00:41:42.107Z,2.40
2023-03-21T00:44:13.589Z,2.73
2023-03-21T00:46:51.568Z,3.23
2023-03-21T00:49:25.333Z,2.80
2023-03-21T00:51:55.121Z,2.70
2023-03-21T00:54:26.021Z,2.33
2023-03-21T00:56:54.507Z,2.10
2023-03-21T00:59:22.507Z,2.90
2023-03-21T01:01:53.518Z,2.20
2023-03-21T01:04:26.393Z,3.03
2023-03-21T01:06:55.148Z,2.60
2023-03-21T01:09:25.413Z,2.63
2023-03-21T01:11:53.632Z,3.00
2023-03-21T01:14:23.953Z,2.97
2023-03-21T01:16:54.659Z,3.60
2023-03-21T01:19:40.980Z,2.93
2023-03-21T01:22:13.208Z,3.43
2023-03-21T01:24:52.464Z,4.23
2023-03-21T01:27:22.426Z,3.63
2023-03-21T01:29:50.753Z,2.50
2023-03-21T01:32:20.124Z,2.77
2023-03-21T01:34:48.187Z,4.10
2023-03-21T01:37:17.714Z,3.27
2023-03-21T01:39:48.829Z,4.13
2023-03-21T01:42:17.025Z,3.53
2023-03-21T01:44:58.663Z,3.57
2023-03-21T01:47:36.137Z,3.93
2023-03-21T01:50:22.113Z,4.60
2023-03-21T01:53:21.492Z,3.33
2023-03-21T01:55:50.530Z,3.50
2023-03-21T01:58:29.954Z,2.57
2023-03-21T02:01:04.754Z,2.97
2023-03-21T02:03:50.437Z,3.30
2023-03-21T02:06:35.385Z,2.80
2023-03-21T02:09:15.762Z,3.00
2023-03-21T02:11:46.532Z,3.40
2023-03-21T02:14:26.579Z,4.40
2023-03-21T02:17:09.863Z,3.23
2023-03-21T02:20:15.579Z,3.60
2023-03-21T02:23:18.457Z,3.47
2023-03-21T02:26:43.896Z,3.17
2023-03-21T02:29:40.208Z,3.17
2023-03-21T02:32:31.559Z,3.47
2023-03-21T02:35:31.023Z,3.00
2023-03-21T02:38:06.894Z,2.90
2023-03-21T02:40:40.721Z,2.60
2023-03-21T02:43:22.891Z,2.90
2023-03-21T02:45:57.337Z,4.03
2023-03-21T02:48:41.319Z,2.90
2023-03-21T02:51:21.515Z,5.90
2023-03-21T02:54:21.340Z,3.40
2023-03-21T02:56:45.606Z,4.47
2023-03-21T02:59:15.672Z,3.30
2023-03-21T03:01:43.841Z,4.00
2023-03-21T03:04:20.349Z,2.77
2023-03-21T03:07:04.871Z,2.70
2023-03-21T03:09:49.737Z,4.20
2023-03-21T03:12:26.486Z,2.80
2023-03-21T03:15:04.428Z,3.17
2023-03-21T03:17:46.037Z,3.30
2023-03-21T03:20:26.271Z,3.67
2023-03-21T03:23:05.593Z,3.80
2023-03-21T03:25:43.301Z,3.73
2023-03-21T03:28:17.937Z,2.97
2023-03-21T03:31:01.180Z,4.07
2023-03-21T03:33:40.722Z,2.60
2023-03-21T03:36:28.348Z,3.60
2023-03-21T03:39:05.317Z,3.40
2023-03-21T03:42:04.290Z,2.57
2023-03-21T03:44:34.400Z,3.70
2023-03-21T03:47:11.834Z,3.27
2023-03-21T03:49:49.173Z,3.10
2023-03-21T03:52:22.052Z,3.57
2023-03-21T03:54:56.990Z,3.27
2023-03-21T03:57:28.726Z,3.33
2023-03-21T03:59:57.384Z,2.93
2023-03-21T04:02:25.573Z,2.97
2023-03-21T04:04:57.795Z,2.47
2023-03-21T04:07:26.129Z,2.87
2023-03-21T04:09:57.461Z,2.87
2023-03-21T04:12:26.818Z,3.10
2023-03-21T04:15:19.106Z,3.60
2023-03-21T04:17:54.529Z,3.13
2023-03-21T04:20:34.226Z,3.23
2023-03-21T04:23:05.038Z,3.30
2023-03-21T04:25:35.042Z,3.33
2023-03-21T04:28:07.498Z,2.83
2023-03-21T04:31:03.561Z,2.50
2023-03-21T04:33:44.618Z,4.00
2023-03-21T04:36:24.683Z,2.60
2023-03-21T04:38:54.817Z,3.90
2023-03-21T04:41:22.786Z,2.83
2023-03-21T04:43:54.350Z,3.43
2023-03-21T04:46:23.787Z,3.93
2023-03-21T04:48:52.443Z,3.40
2023-03-21T04:51:20.706Z,3.90
2023-03-21T04:53:49.394Z,2.97
2023-03-21T04:56:17.527Z,3.00
2023-03-21T04:58:45.703Z,3.80
2023-03-21T05:01:20.643Z,4.13
2023-03-21T05:03:49.325Z,4.53
2023-03-21T05:06:17.382Z,4.40
2023-03-21T05:08:45.332Z,3.60
2023-03-21T05:11:13.933Z,3.60
2023-03-21T05:13:41.921Z,3.40
2023-03-21T05:16:10.755Z,2.40
2023-03-21T05:18:40.433Z,3.43
2023-03-21T05:21:18.119Z,5.07
2023-03-21T05:23:54.828Z,3.10
2023-03-21T05:26:24.124Z,3.40
2023-03-21T05:28:59.291Z,3.77
2023-03-21T05:31:27.324Z,3.53
2023-03-21T05:34:07.541Z,4.07
2023-03-21T05:36:36.703Z,3.43
2023-03-21T05:39:08.220Z,4.73
2023-03-21T05:41:43.999Z,4.17
2023-03-21T05:44:12.055Z,3.97
2023-03-21T05:46:44.004Z,4.00
2023-03-21T05:49:13.966Z,3.00
2023-03-21T05:51:44.925Z,3.60
2023-03-21T05:54:16.649Z,4.20
2023-03-21T05:56:47.637Z,3.83
2023-03-21T05:59:24.180Z,4.20
2023-03-21T06:01:54.977Z,3.87
2023-03-21T06:04:24.396Z,3.60
2023-03-21T06:06:53.504Z,3.90
2023-03-21T06:09:23.273Z,3.30
2023-03-21T06:11:57.840Z,3.60
2023-03-21T06:14:32.720Z,3.53
2023-03-21T06:17:29.814Z,3.87
2023-03-21T06:20:07.420Z,2.80
2023-03-21T06:22:42.878Z,3.77
2023-03-21T06:25:12.058Z,3.83
2023-03-21T06:27:40.979Z,3.23
2023-03-21T06:30:10.504Z,4.20
2023-03-21T06:32:47.035Z,2.97
2023-03-21T06:35:19.907Z,6.70
2023-03-21T06:37:49.340Z,3.60
2023-03-21T06:40:18.243Z,4.47
2023-03-21T06:42:46.808Z,3.63
2023-03-21T06:45:15.480Z,3.87
2023-03-21T06:47:44.304Z,3.27
2023-03-21T06:50:22.691Z,3.17
2023-03-21T06:52:51.028Z,3.33
2023-03-21T06:55:26.027Z,3.40
2023-03-21T06:57:54.455Z,2.40
2023-03-21T07:00:24.650Z,4.23
2023-03-21T07:02:53.817Z,3.00
2023-03-21T07:05:25.953Z,4.20
2023-03-21T07:07:53.945Z,2.50
2023-03-21T07:10:24.248Z,2.80
2023-03-21T07:13:02.420Z,2.40
2023-03-21T07:15:46.561Z,2.80
2023-03-21T07:18:14.697Z,2.50
2023-03-21T07:20:50.898Z,3.37
2023-03-21T07:23:20.120Z,2.63
2023-03-21T07:25:48.955Z,2.50
2023-03-21T07:28:18.056Z,2.20
2023-03-21T07:30:46.783Z,2.33
2023-03-21T07:33:15.716Z,2.30
2023-03-21T07:35:45.284Z,2.43
2023-03-21T07:38:16.725Z,2.50
2023-03-21T07:40:45.032Z,2.37
2023-03-21T07:43:14.694Z,2.00
2023-03-21T07:45:45.589Z,2.10
2023-03-21T07:48:17.433Z,2.17
2023-03-21T07:50:47.159Z,2.77
2023-03-21T07:53:15.150Z,2.50
2023-03-21T07:55:43.152Z,1.73
2023-03-21T07:58:11.322Z,2.33
2023-03-21T08:00:39.324Z,1.73
2023-03-21T08:03:07.351Z,2.13
2023-03-21T08:05:37.860Z,2.10
2023-03-21T08:08:08.443Z,1.83
2023-03-21T08:10:37.012Z,1.37
2023-03-21T08:13:05.233Z,2.77
2023-03-21T08:15:33.328Z,1.73
2023-03-21T08:18:01.747Z,1.93
2023-03-21T08:20:29.886Z,2.10
2023-03-21T08:22:57.983Z,1.20
2023-03-21T08:25:27.358Z,1.97
2023-03-21T08:27:55.593Z,1.97
2023-03-21T08:30:27.314Z,2.10
2023-03-21T08:33:00.930Z,2.07
2023-03-21T08:35:30.417Z,1.90
2023-03-21T08:37:58.780Z,1.83
2023-03-21T08:40:28.088Z,1.43
2023-03-21T08:42:56.313Z,1.53
2023-03-21T08:45:25.373Z,1.83
2023-03-21T08:47:53.769Z,1.57
2023-03-21T08:50:23.168Z,2.17
2023-03-21T08:52:51.506Z,1.57
2023-03-21T08:55:20.453Z,1.70
2023-03-21T08:57:49.855Z,1.93
2023-03-21T09:00:20.832Z,1.70
2023-03-21T09:02:51.471Z,1.83
2023-03-21T09:05:19.931Z,2.07
2023-03-21T09:07:49.547Z,2.00
2023-03-21T09:10:21.778Z,2.00
2023-03-21T09:12:53.548Z,2.63
2023-03-21T09:15:24.306Z,1.80
2023-03-21T09:17:54.226Z,1.80
2023-03-21T09:20:30.776Z,1.90
2023-03-21T09:22:59.697Z,2.63
2023-03-21T09:25:31.700Z,2.00
2023-03-21T09:28:02.124Z,2.30
2023-03-21T09:30:31.383Z,2.33
2023-03-21T09:33:00.691Z,2.20
2023-03-21T09:35:29.524Z,2.27
2023-03-21T09:37:58.951Z,2.30
2023-03-21T09:40:41.412Z,2.10
2023-03-21T09:43:21.877Z,2.17
2023-03-21T09:45:56.195Z,2.27
2023-03-21T09:48:37.659Z,3.20
2023-03-21T09:51:15.814Z,2.57
2023-03-21T09:53:46.028Z,2.60
2023-03-21T09:56:15.352Z,2.50
2023-03-21T09:58:47.379Z,3.20
2023-03-21T10:01:28.207Z,2.80
2023-03-21T10:03:58.929Z,2.80
2023-03-21T10:06:30.577Z,3.00
2023-03-21T10:09:07.215Z,3.17
2023-03-21T10:11:44.274Z,3.33
2023-03-21T10:14:20.243Z,2.27
2023-03-21T10:16:52.350Z,2.60
2023-03-21T10:19:21.447Z,2.93
2023-03-21T10:22:00.623Z,2.57
2023-03-21T10:24:32.715Z,2.03
2023-03-21T10:27:02.375Z,3.00
2023-03-21T10:29:36.895Z,2.70
2023-03-21T10:32:05.429Z,2.53
2023-03-21T10:34:37.039Z,2.63
2023-03-21T10:37:06.967Z,2.50
2023-03-21T10:39:37.475Z,2.40
2023-03-21T10:42:05.623Z,2.50
2023-03-21T10:44:37.296Z,2.40
2023-03-21T10:47:07.590Z,2.50
2023-03-21T10:49:56.442Z,2.60
2023-03-21T10:52:31.168Z,2.43
2023-03-21T10:55:17.673Z,1.40
2023-03-21T10:57:47.251Z,2.93
2023-03-21T11:00:21.753Z,2.50
2023-03-21T11:02:51.363Z,2.20
2023-03-21T11:05:23.120Z,2.50
2023-03-21T11:07:59.734Z,2.27
2023-03-21T11:10:31.217Z,3.00
2023-03-21T11:13:04.563Z,2.73
2023-03-21T11:15:43.042Z,2.80
2023-03-21T11:18:20.235Z,2.10
2023-03-21T11:20:55.566Z,2.47
2023-03-21T11:23:28.060Z,1.33
2023-03-21T11:25:58.283Z,2.17
2023-03-21T11:28:33.258Z,2.80
2023-03-21T11:31:04.095Z,2.13
2023-03-21T11:33:36.567Z,2.30
2023-03-21T11:36:07.276Z,2.13
2023-03-21T11:38:39.494Z,2.90
2023-03-21T11:41:08.380Z,2.40
2023-03-21T11:43:38.226Z,2.20
2023-03-21T11:46:14.145Z,2.10
2023-03-21T11:48:43.925Z,1.67
2023-03-21T11:51:21.135Z,2.90
2023-03-21T11:53:56.647Z,2.50
2023-03-21T11:56:28.494Z,2.03
2023-03-21T11:59:24.515Z,2.70
2023-03-21T12:02:06.564Z,2.40
2023-03-21T12:04:41.329Z,2.30
2023-03-21T12:07:28.623Z,3.17
2023-03-21T12:10:03.766Z,1.77
2023-03-21T12:12:43.184Z,1.97
2023-03-21T12:15:18.597Z,2.03
2023-03-21T12:17:57.069Z,2.40
2023-03-21T12:20:35.791Z,2.30
2023-03-21T12:23:21.584Z,2.17
2023-03-21T12:25:56.540Z,2.40
2023-03-21T12:28:34.492Z,2.10
2023-03-21T12:31:10.619Z,2.20
2023-03-21T12:33:58.950Z,2.37
2023-03-21T12:36:43.624Z,2.53
2023-03-21T12:39:22.366Z,2.77
2023-03-21T12:42:00.516Z,2.43
2023-03-21T12:44:32.947Z,2.20
2023-03-21T12:47:04.418Z,2.60
2023-03-21T12:49:36.440Z,2.57
2023-03-21T12:52:08.634Z,2.27
2023-03-21T12:54:40.696Z,2.50
2023-03-21T12:57:13.065Z,2.53
2023-03-21T12:59:46.718Z,2.70
2023-03-21T13:02:21.257Z,2.00
2023-03-21T13:05:01.386Z,2.63
2023-03-21T13:07:34.693Z,2.50
2023-03-21T13:10:05.209Z,2.40
2023-03-21T13:12:44.625Z,2.40
2023-03-21T13:15:38.544Z,2.40
2023-03-21T13:18:17.055Z,2.00
2023-03-21T13:20:50.365Z,2.57
2023-03-21T13:23:19.543Z,2.23
2023-03-21T13:25:49.673Z,2.00
2023-03-21T13:28:21.836Z,2.40
2023-03-21T13:30:50.950Z,1.83
2023-03-21T13:33:25.891Z,2.63
2023-03-21T13:36:05.286Z,2.60
2023-03-21T13:38:34.631Z,2.30
2023-03-21T13:41:08.847Z,2.40
2023-03-21T13:43:43.342Z,1.53
2023-03-21T13:46:13.384Z,2.00
2023-03-21T13:49:00.293Z,2.73
2023-03-21T13:51:47.338Z,2.20
2023-03-21T13:54:21.870Z,3.20
2023-03-21T13:56:52.480Z,2.43
2023-03-21T13:59:36.824Z,1.70
2023-03-21T14:02:23.644Z,2.20
2023-03-21T14:05:06.965Z,2.50
2023-03-21T14:07:42.371Z,2.20
2023-03-21T14:10:21.147Z,2.07
2023-03-21T14:12:50.474Z,2.30
2023-03-21T14:15:22.858Z,1.97
2023-03-21T14:17:52.454Z,2.00
2023-03-21T14:20:23.502Z,2.10
2023-03-21T14:22:53.033Z,2.13
2023-03-21T14:25:24.342Z,1.73
2023-03-21T14:27:55.898Z,1.80
2023-03-21T14:30:27.447Z,2.03
2023-03-21T14:32:58.738Z,1.70
2023-03-21T14:35:31.258Z,1.70
2023-03-21T14:38:05.985Z,1.60
2023-03-21T14:40:34.020Z,1.90
2023-03-21T14:43:06.063Z,1.60
2023-03-21T14:45:37.176Z,1.27
2023-03-21T14:48:07.644Z,1.27
2023-03-21T14:50:43.246Z,1.63
2023-03-21T14:53:16.980Z,1.67
2023-03-21T14:55:47.684Z,1.17
2023-03-21T14:58:17.933Z,2.20
2023-03-21T15:00:50.216Z,1.47
2023-03-21T15:03:20.076Z,1.60
2023-03-21T15:05:48.385Z,1.10
2023-03-21T15:08:19.706Z,1.60
2023-03-21T15:11:06.267Z,1.70
2023-03-21T15:13:37.925Z,1.53
2023-03-21T15:16:06.920Z,1.17
2023-03-21T15:18:38.776Z,1.93
2023-03-21T15:21:11.316Z,1.50
2023-03-21T15:23:43.144Z,1.40
2023-03-21T15:26:16.341Z,1.40
2023-03-21T15:28:46.106Z,1.33
2023-03-21T15:31:18.378Z,1.43
2023-03-21T15:33:48.044Z,1.20
2023-03-21T15:36:21.861Z,1.20
2023-03-21T15:38:52.228Z,1.47
2023-03-21T15:41:31.384Z,1.43
2023-03-21T15:44:06.395Z,1.00
2023-03-21T15:46:41.917Z,1.30
2023-03-21T15:49:18.243Z,1.40
2023-03-21T15:51:49.812Z,1.27
2023-03-21T15:54:24.595Z,1.37
2023-03-21T15:56:55.923Z,1.60
2023-03-21T15:59:28.151Z,1.50
2023-03-21T16:01:56.336Z,1.47
2023-03-21T16:04:25.800Z,1.20
2023-03-21T16:06:59.491Z,1.40
2023-03-21T16:09:29.774Z,1.20
2023-03-21T16:11:59.638Z,1.37
2023-03-21T16:14:28.530Z,1.30
2023-03-21T16:16:59.031Z,1.67
2023-03-21T16:19:29.526Z,1.40
2023-03-21T16:21:57.545Z,1.53
2023-03-21T16:24:25.509Z,1.00
2023-03-21T16:26:55.089Z,1.93
2023-03-21T16:29:23.087Z,1.53
2023-03-21T16:31:51.146Z,1.30
2023-03-21T16:34:19.130Z,1.60
2023-03-21T16:36:48.074Z,1.27
2023-03-21T16:39:19.339Z,1.30
2023-03-21T16:41:47.680Z,1.50
2023-03-21T16:44:17.126Z,1.70
2023-03-21T16:46:47.110Z,1.20
2023-03-21T16:49:21.209Z,1.20
2023-03-21T16:51:49.238Z,1.40
2023-03-21T16:54:17.254Z,1.23
2023-03-21T16:56:48.659Z,1.33
2023-03-21T16:59:18.048Z,1.50
2023-03-21T17:01:48.155Z,1.37
2023-03-21T17:04:17.077Z,1.40
2023-03-21T17:06:47.345Z,1.20
2023-03-21T17:09:17.468Z,1.10
2023-03-21T17:11:46.315Z,1.60
2023-03-21T17:14:16.803Z,1.27
2023-03-21T17:16:47.124Z,1.60
2023-03-21T17:19:16.812Z,1.53
2023-03-21T17:21:45.630Z,1.40
2023-03-21T17:24:14.020Z,1.70
2023-03-21T17:26:42.255Z,1.47
2023-03-21T17:29:13.792Z,1.60
2023-03-21T17:31:42.408Z,1.50
2023-03-21T17:34:11.766Z,1.30
2023-03-21T17:36:42.093Z,1.80
2023-03-21T17:39:15.496Z,1.63
2023-03-21T17:41:43.469Z,1.30
2023-03-21T17:44:11.431Z,1.60
2023-03-21T17:46:39.593Z,1.20
2023-03-21T17:49:08.061Z,1.30
2023-03-21T17:51:37.405Z,2.13
2023-03-21T17:54:06.071Z,1.70
2023-03-21T17:56:37.369Z,2.40
2023-03-21T17:59:08.248Z,4.00
2023-03-21T18:01:36.440Z,2.90
2023-03-21T18:04:05.211Z,1.77
2023-03-21T18:06:35.075Z,1.70
2023-03-21T18:09:08.997Z,2.20
2023-03-21T18:11:37.380Z,1.90
2023-03-21T18:14:15.965Z,3.70
2023-03-21T18:16:45.789Z,2.57
2023-03-21T18:19:14.532Z,1.40
2023-03-21T18:21:44.878Z,1.90
2023-03-21T18:24:14.890Z,2.50
2023-03-21T18:26:43.290Z,2.50
2023-03-21T18:32:06.875Z,2.60
2023-03-21T18:34:36.766Z,2.10
2023-03-21T18:37:07.484Z,1.80
2023-03-21T18:39:38.158Z,2.43
2023-03-21T18:42:06.818Z,2.90
2023-03-21T18:44:38.678Z,3.80
2023-03-21T18:47:07.731Z,1.87
2023-03-21T18:52:26.401Z,2.17
2023-03-21T18:54:55.970Z,2.13
2023-03-21T18:57:36.459Z,2.10
2023-03-21T19:00:12.381Z,1.20
2023-03-21T19:02:45.562Z,5.80
2023-03-21T19:05:15.636Z,5.40
2023-03-21T19:07:43.662Z,4.10
2023-03-21T19:10:18.894Z,2.17
2023-03-21T19:12:48.142Z,1.70
2023-03-21T19:15:18.610Z,2.40
2023-03-21T19:18:26.453Z,3.67
2023-03-21T19:20:35.112Z,1.77
2023-03-21T19:23:03.282Z,2.73
2023-03-21T19:25:32.679Z,2.40
2023-03-21T19:28:00.714Z,2.03
2023-03-21T19:30:28.710Z,2.03
2023-03-21T19:32:56.848Z,2.27
2023-03-21T19:35:25.272Z,2.13
2023-03-21T19:37:53.327Z,2.30
2023-03-21T19:40:21.503Z,1.63
2023-03-21T19:42:50.784Z,1.70
2023-03-21T19:45:18.904Z,2.07
2023-03-21T19:47:47.098Z,2.37
2023-03-21T19:50:47.340Z,2.10
2023-03-21T19:53:03.088Z,2.40
2023-03-21T19:55:31.408Z,2.13
2023-03-21T19:58:01.346Z,2.17
2023-03-21T20:00:30.136Z,2.10
2023-03-21T20:02:58.208Z,1.83
2023-03-21T20:05:26.562Z,4.20
2023-03-21T20:07:57.218Z,2.37
2023-03-21T20:10:27.334Z,2.07
2023-03-21T20:12:55.520Z,1.83
2023-03-21T20:15:28.418Z,1.80
2023-03-21T20:17:58.561Z,2.33
2023-03-21T20:20:26.737Z,2.53
2023-03-21T20:23:11.638Z,1.90
2023-03-21T20:25:43.746Z,2.00
2023-03-21T20:28:17.218Z,2.67
2023-03-21T20:30:56.825Z,2.63
2023-03-21T20:33:25.285Z,3.40
2023-03-21T20:38:45.661Z,2.57
2023-03-21T20:41:13.826Z,2.77
2023-03-21T20:46:31.231Z,2.83
2023-03-21T20:48:59.758Z,3.00
2023-03-21T20:54:17.787Z,2.77
2023-03-21T20:56:45.755Z,3.50
2023-03-21T20:59:25.876Z,3.20
2023-03-21T21:01:57.188Z,2.80
2023-03-21T21:04:46.665Z,2.70
2023-03-21T21:07:17.132Z,2.80
2023-03-21T21:09:45.798Z,3.30
2023-03-21T21:12:15.045Z,2.63
2023-03-21T21:14:43.710Z,3.20
2023-03-21T21:20:02.289Z,3.60
2023-03-21T21:22:30.274Z,2.47
2023-03-21T21:24:58.263Z,2.87
2023-03-21T21:27:26.252Z,3.77
2023-03-21T21:29:54.221Z,3.00
2023-03-21T21:32:23.673Z,2.77
2023-03-21T21:34:52.200Z,2.47
2023-03-21T21:37:20.180Z,2.60
2023-03-21T21:39:48.113Z,3.10
2023-03-21T21:42:16.283Z,2.83
2023-03-21T21:44:46.680Z,2.57
2023-03-21T21:47:14.794Z,2.73
2023-03-21T21:49:44.134Z,3.70
2023-03-21T21:52:13.571Z,3.07
2023-03-21T21:54:45.620Z,2.97
2023-03-21T21:57:14.542Z,3.87
2023-03-21T21:59:42.516Z,2.90
2023-03-21T22:02:13.763Z,2.80
2023-03-21T22:04:41.693Z,3.23
2023-03-21T22:07:14.283Z,2.67
2023-03-21T22:09:42.494Z,3.60
2023-03-21T22:12:10.909Z,2.80
2023-03-21T22:14:38.934Z,3.40
2023-03-21T22:17:07.227Z,3.10
2023-03-21T22:19:35.608Z,2.50
2023-03-21T22:22:03.645Z,3.20
2023-03-21T22:24:33.229Z,3.63
2023-03-21T22:27:01.189Z,3.20
2023-03-21T22:29:30.222Z,2.97
2023-03-21T22:31:58.318Z,3.30
2023-03-21T22:34:27.734Z,2.47
2023-03-21T22:36:57.067Z,2.43
2023-03-21T22:39:26.348Z,3.13
2023-03-21T22:41:57.783Z,2.87
2023-03-21T22:44:25.825Z,2.90
2023-03-21T22:46:53.776Z,2.80
2023-03-21T22:49:21.744Z,3.20
2023-03-21T22:51:49.720Z,3.53
2023-03-21T22:54:17.659Z,3.60
2023-03-21T22:56:45.778Z,3.03
2023-03-21T22:59:15.077Z,3.40
2023-03-21T23:01:43.290Z,3.13
2023-03-21T23:04:11.273Z,2.70
2023-03-21T23:06:39.313Z,2.70
2023-03-21T23:09:07.422Z,3.13
2023-03-21T23:11:35.377Z,3.33
2023-03-21T23:14:07.985Z,3.30
2023-03-21T23:16:38.644Z,3.60
2023-03-21T23:19:08.083Z,3.40
2023-03-21T23:21:38.219Z,2.40
2023-03-21T23:24:06.799Z,2.90
2023-03-21T23:26:36.070Z,3.00
2023-03-21T23:29:04.266Z,3.57
2023-03-21T23:31:33.025Z,3.80
2023-03-21T23:34:02.726Z,2.97
2023-03-21T23:36:31.205Z,2.63
2023-03-21T23:38:59.446Z,3.80
2023-03-21T23:41:27.602Z,3.00
2023-03-21T23:43:55.604Z,3.13
2023-03-21T23:46:23.717Z,3.80
2023-03-21T23:48:51.663Z,2.80
2023-03-21T23:51:21.011Z,3.90
2023-03-21T23:53:49.042Z,3.20
2023-03-21T23:56:18.247Z,3.20
2023-03-21T23:58:46.639Z,3.50
